Time;durP1;ratioP1;P1;durP2;ratioP2;P2;SDS_P1;SDS_P2;PMS_P1;PMS_P2;Temp;Humidity;BMP_temperature;BMP_pressure;BME280_temperature;BME280_humidity;BME280_pressure;Samples;Min_cycle;Max_cycle;Signal;HPM_P1;HPM_P2
2022/04/21 05:05:21;;;;;;;35.30;16.90;;;;;;;5.99;83.61;99778.88;31095848;28;96510;-68
2022/04/21 05:20:22;;;;;;;43.22;20.35;;;;;;;6.67;83.02;99767.69;31066194;28;97937;-69
2022/04/21 05:35:23;;;;;;;42.08;17.02;;;;;;;7.21;82.30;99787.84;31074456;28;96818;-68
2022/04/21 05:50:26;;;;;;;37.92;19.15;;;;;;;7.25;81.86;99787.34;31068450;28;96624;-71
2022/04/21 06:05:26;;;;;;;39.25;17.55;;;;;;;7.53;81.41;99773.91;30918394;28;97277;-70
2022/04/21 06:20:27;;;;;;;35.25;15.55;;;;;;;7.66;80.47;99784.03;30864580;28;97424;-69
2022/04/21 06:35:27;;;;;;;30.77;14.63;;;;;;;7.62;80.52;99803.91;30861074;28;97731;-68
2022/04/21 06:50:29;;;;;;;39.95;16.90;;;;;;;7.61;80.23;99812.84;30855145;28;97156;-71
2022/04/21 07:05:30;;;;;;;33.65;14.68;;;;;;;7.69;79.93;99828.78;30851283;28;96918;-68
2022/04/21 07:20:30;;;;;;;25.85;15.60;;;;;;;7.76;79.46;99837.78;30856625;28;97197;-68
2022/04/21 07:35:31;;;;;;;35.17;14.63;;;;;;;7.87;79.57;99859.66;30855974;28;97060;-69
2022/04/21 07:50:32;;;;;;;24.33;12.90;;;;;;;8.27;78.98;99842.22;30856027;28;97016;-68
2022/04/21 08:05:33;;;;;;;17.00;10.55;;;;;;;8.60;78.21;99859.00;30856095;28;96650;-72
2022/04/21 08:20:37;;;;;;;24.10;12.53;;;;;;;8.63;76.40;99860.50;30855299;28;96811;-69
2022/04/21 08:35:37;;;;;;;23.53;12.83;;;;;;;8.69;75.87;99862.50;30852686;28;96683;-68
2022/04/21 08:50:39;;;;;;;22.00;11.70;;;;;;;9.11;75.88;99868.59;30853048;28;96873;-69
2022/04/21 09:05:40;;;;;;;21.73;11.40;;;;;;;10.19;75.27;99866.38;30851301;28;96674;-70
2022/04/21 09:20:40;;;;;;;24.80;12.50;;;;;;;10.05;72.40;99881.28;30852244;28;96777;-70
2022/04/21 09:35:43;;;;;;;20.75;11.63;;;;;;;9.92;73.41;99882.66;30849322;28;97535;-71
2022/04/21 09:50:49;;;;;;;23.40;12.40;;;;;;;10.14;72.65;99891.69;30866225;28;96761;-72
2022/04/21 10:05:49;;;;;;;20.23;11.90;;;;;;;10.59;71.88;99886.63;30868284;28;96579;-71
2022/04/21 10:20:53;;;;;;;18.02;11.32;;;;;;;10.82;71.19;99889.25;30866544;28;96860;-72
2022/04/21 10:35:56;;;;;;;24.77;12.47;;;;;;;11.97;69.51;99886.41;30864370;28;96740;-70
2022/04/21 10:50:56;;;;;;;20.87;11.60;;;;;;;13.68;66.28;99872.28;30862265;28;97228;-70
2022/04/21 11:06:17;;;;;;;20.55;10.95;;;;;;;14.85;63.85;99877.56;30860931;28;102871;-71
2022/04/21 11:21:26;;;;;;;19.97;12.53;;;;;;;16.02;60.17;99868.84;30860315;28;96853;-71
2022/04/21 11:36:38;;;;;;;19.63;12.83;;;;;;;15.49;56.57;99861.81;30858764;28;96724;-71
2022/04/21 11:51:38;;;;;;;27.00;14.93;;;;;;;15.41;56.17;99857.50;30856913;28;96778;-71
2022/04/21 12:06:40;;;;;;;28.45;12.65;;;;;;;15.45;54.63;99845.28;30854871;28;101523;-73
2022/04/21 12:21:42;;;;;;;18.80;11.97;;;;;;;16.18;52.45;99846.06;30855139;28;96741;-75
2022/04/21 12:36:58;;;;;;;21.30;13.87;;;;;;;17.37;49.95;99840.78;30853142;28;97022;-71
2022/04/21 12:51:59;;;;;;;14.90;9.63;;;;;;;18.40;46.35;99830.16;30852065;28;97077;-71
2022/04/21 13:07:00;;;;;;;19.13;11.50;;;;;;;18.16;42.74;99845.44;30852969;28;96780;-72
2022/04/21 13:22:01;;;;;;;17.48;13.18;;;;;;;17.20;44.15;99839.72;30861470;28;97978;-72
2022/04/21 13:37:03;;;;;;;17.30;11.27;;;;;;;18.38;43.43;99834.13;30869942;28;96697;-70
2022/04/21 13:52:03;;;;;;;16.43;11.50;;;;;;;18.48;41.00;99829.00;30868919;28;97306;-68
2022/04/21 14:07:04;;;;;;;19.33;12.25;;;;;;;17.20;41.87;99845.91;30867911;28;96665;-67
2022/04/21 14:22:04;;;;;;;17.52;12.38;;;;;;;16.01;43.77;99835.00;30864481;28;97517;-71
2022/04/21 14:37:05;;;;;;;17.33;11.30;;;;;;;15.27;44.67;99829.88;30862352;28;110213;-70
2022/04/21 14:52:09;;;;;;;16.60;11.73;;;;;;;14.63;46.29;99839.41;30861414;28;97388;-69
2022/04/21 15:07:10;;;;;;;16.53;10.17;;;;;;;14.05;48.27;99836.19;30859315;28;97558;-69
2022/04/21 15:22:10;;;;;;;14.02;10.20;;;;;;;13.82;49.14;99841.03;30859025;28;97253;-70
2022/04/21 15:37:10;;;;;;;14.25;9.68;;;;;;;13.51;49.62;99834.31;30856322;28;114698;-67
